Terminal Aerodrome Forecast
Issued by NWS

Home | Current Version | Previous Version | Text Only | Print | Product List | Glossary On
Versions: 1 2 3 4 5 6 7 8 9 10 11 12 13 14 15 16 17 18
000
FTUS42 KTAE 020729 AAA
TAFVLD
TAF AMD
KVLD 020729Z 0207/0306 13004KT 5SM BR BKN004
     FM021400 15005KT P6SM VCSH BKN025
     FM021600 20005KT P6SM -SHRA BKN040 PROB30 0219/0224 TSRA
      BKN040CB=

USA.gov is the U.S. government's official web portal to all federal, state and local government web resources and services.